sensor_id;sensor_type;location;lat;lon;timestamp;pressure;altitude;pressure_sealevel;temperature;humidity
64019;BME280;66942;52.138;5.216;2023-11-21T00:01:09;101074.0;;;18.87;36.06
64019;BME280;66942;52.138;5.216;2023-11-21T00:04:23;101076.0;;;18.89;35.99
64019;BME280;66942;52.138;5.216;2023-11-21T00:05:59;101074.0;;;18.8;36.1
64019;BME280;66942;52.138;5.216;2023-11-21T00:07:35;101077.0;;;18.38;36.78
64019;BME280;66942;52.138;5.216;2023-11-21T00:10:47;101080.0;;;18.37;36.74
64019;BME280;66942;52.138;5.216;2023-11-21T00:12:23;101076.0;;;18.47;36.62
64019;BME280;66942;52.138;5.216;2023-11-21T00:13:59;101082.0;;;18.73;36.03
64019;BME280;66942;52.138;5.216;2023-11-21T00:15:35;101090.0;;;18.52;36.43
64019;BME280;66942;52.138;5.216;2023-11-21T00:18:47;101093.0;;;18.47;36.46
64019;BME280;66942;52.138;5.216;2023-11-21T00:20:23;101091.0;;;18.29;36.79
64019;BME280;66942;52.138;5.216;2023-11-21T00:21:59;101090.0;;;18.27;36.86
64019;BME280;66942;52.138;5.216;2023-11-21T00:25:12;101087.0;;;18.23;36.92
64019;BME280;66942;52.138;5.216;2023-11-21T00:26:49;101084.0;;;18.18;36.96
64019;BME280;66942;52.138;5.216;2023-11-21T00:28:25;101083.0;;;18.09;37.14
64019;BME280;66942;52.138;5.216;2023-11-21T00:31:39;101090.0;;;18.41;36.6
64019;BME280;66942;52.138;5.216;2023-11-21T00:33:15;101090.0;;;18.61;36.11
64019;BME280;66942;52.138;5.216;2023-11-21T00:34:51;101089.0;;;18.2;36.79
64019;BME280;66942;52.138;5.216;2023-11-21T00:36:27;101090.0;;;18.57;36.21
64019;BME280;66942;52.138;5.216;2023-11-21T00:39:39;101092.0;;;18.57;36.1
64019;BME280;66942;52.138;5.216;2023-11-21T00:41:16;101096.0;;;18.5;36.22
64019;BME280;66942;52.138;5.216;2023-11-21T00:42:52;101096.0;;;18.22;36.64
64019;BME280;66942;52.138;5.216;2023-11-21T00:46:04;101091.0;;;18.13;36.9
64019;BME280;66942;52.138;5.216;2023-11-21T00:47:40;101098.0;;;18.47;36.22
64019;BME280;66942;52.138;5.216;2023-11-21T00:49:16;101097.0;;;18.59;35.92
64019;BME280;66942;52.138;5.216;2023-11-21T00:52:28;101100.0;;;18.43;36.21
64019;BME280;66942;52.138;5.216;2023-11-21T00:54:05;101102.0;;;18.11;36.86
64019;BME280;66942;52.138;5.216;2023-11-21T00:55:41;101099.0;;;18.27;36.6
64019;BME280;66942;52.138;5.216;2023-11-21T00:58:54;101105.0;;;18.47;36.44
64019;BME280;66942;52.138;5.216;2023-11-21T01:00:30;101108.0;;;18.68;36.08
64019;BME280;66942;52.138;5.216;2023-11-21T01:02:06;101112.0;;;18.86;35.85
64019;BME280;66942;52.138;5.216;2023-11-21T01:03:42;101114.0;;;18.63;36.35
64019;BME280;66942;52.138;5.216;2023-11-21T01:06:54;101114.0;;;19.0;35.85
64019;BME280;66942;52.138;5.216;2023-11-21T01:08:30;101117.0;;;19.32;35.26
64019;BME280;66942;52.138;5.216;2023-11-21T01:10:07;101120.0;;;18.62;36.51
64019;BME280;66942;52.138;5.216;2023-11-21T01:13:19;101125.0;;;18.56;36.83
64019;BME280;66942;52.138;5.216;2023-11-21T01:14:55;101127.0;;;19.09;35.86
64019;BME280;66942;52.138;5.216;2023-11-21T01:16:31;101128.0;;;19.14;35.72
64019;BME280;66942;52.138;5.216;2023-11-21T01:19:44;101130.0;;;18.68;36.5
64019;BME280;66942;52.138;5.216;2023-11-21T01:21:20;101124.0;;;18.91;36.28
64019;BME280;66942;52.138;5.216;2023-11-21T01:22:56;101123.0;;;18.91;36.24
64019;BME280;66942;52.138;5.216;2023-11-21T01:24:32;101126.0;;;19.0;36.21
64019;BME280;66942;52.138;5.216;2023-11-21T01:27:44;101127.0;;;18.77;36.64
64019;BME280;66942;52.138;5.216;2023-11-21T01:29:20;101124.0;;;18.98;36.31
64019;BME280;66942;52.138;5.216;2023-11-21T01:30:56;101120.0;;;19.06;36.33
64019;BME280;66942;52.138;5.216;2023-11-21T01:34:08;101123.0;;;19.16;36.28
64019;BME280;66942;52.138;5.216;2023-11-21T01:35:44;101130.0;;;19.14;36.25
64019;BME280;66942;52.138;5.216;2023-11-21T01:37:21;101130.0;;;19.3;36.11
64019;BME280;66942;52.138;5.216;2023-11-21T01:40:33;101133.0;;;19.45;35.85
64019;BME280;66942;52.138;5.216;2023-11-21T01:42:09;101130.0;;;19.87;35.28
64019;BME280;66942;52.138;5.216;2023-11-21T01:43:45;101139.0;;;19.77;35.49
64019;BME280;66942;52.138;5.216;2023-11-21T01:46:57;101141.0;;;19.27;36.42
64019;BME280;66942;52.138;5.216;2023-11-21T01:48:34;101144.0;;;19.2;36.82
64019;BME280;66942;52.138;5.216;2023-11-21T01:50:14;101145.0;;;19.16;36.99
64019;BME280;66942;52.138;5.216;2023-11-21T01:51:52;101152.0;;;19.25;36.87
64019;BME280;66942;52.138;5.216;2023-11-21T01:55:06;101150.0;;;19.38;36.65
64019;BME280;66942;52.138;5.216;2023-11-21T01:56:43;101156.0;;;19.5;36.83
64019;BME280;66942;52.138;5.216;2023-11-21T01:58:21;101161.0;;;19.7;36.4
64019;BME280;66942;52.138;5.216;2023-11-21T02:01:37;101165.0;;;20.2;35.67
64019;BME280;66942;52.138;5.216;2023-11-21T02:03:13;101172.0;;;19.86;36.35
64019;BME280;66942;52.138;5.216;2023-11-21T02:04:49;101173.0;;;19.84;36.46
64019;BME280;66942;52.138;5.216;2023-11-21T02:06:25;101172.0;;;19.61;36.74
64019;BME280;66942;52.138;5.216;2023-11-21T02:09:37;101176.0;;;20.22;35.96
64019;BME280;66942;52.138;5.216;2023-11-21T02:11:13;101178.0;;;20.2;36.03
64019;BME280;66942;52.138;5.216;2023-11-21T02:12:50;101174.0;;;20.14;36.18
64019;BME280;66942;52.138;5.216;2023-11-21T02:16:05;101176.0;;;20.46;35.68
64019;BME280;66942;52.138;5.216;2023-11-21T02:17:41;101184.0;;;20.43;35.72
64019;BME280;66942;52.138;5.216;2023-11-21T02:19:18;101186.0;;;20.0;36.39
64019;BME280;66942;52.138;5.216;2023-11-21T02:22:34;101182.0;;;20.02;36.6
64019;BME280;66942;52.138;5.216;2023-11-21T02:24:15;101181.0;;;20.12;36.47
64019;BME280;66942;52.138;5.216;2023-11-21T02:25:51;101178.0;;;20.03;36.71
64019;BME280;66942;52.138;5.216;2023-11-21T02:27:27;101184.0;;;20.0;36.85
64019;BME280;66942;52.138;5.216;2023-11-21T02:30:40;101183.0;;;20.38;36.24
64019;BME280;66942;52.138;5.216;2023-11-21T02:32:16;101188.0;;;20.37;36.35
64019;BME280;66942;52.138;5.216;2023-11-21T02:33:52;101193.0;;;20.46;36.31
64019;BME280;66942;52.138;5.216;2023-11-21T02:37:04;101187.0;;;20.67;35.94
64019;BME280;66942;52.138;5.216;2023-11-21T02:38:40;101188.0;;;20.5;36.1
64019;BME280;66942;52.138;5.216;2023-11-21T02:40:16;101188.0;;;20.23;36.78
64019;BME280;66942;52.138;5.216;2023-11-21T02:43:28;101194.0;;;20.23;36.89
64019;BME280;66942;52.138;5.216;2023-11-21T02:45:06;101192.0;;;20.36;36.67
64019;BME280;66942;52.138;5.216;2023-11-21T02:46:42;101190.0;;;20.36;36.71
64019;BME280;66942;52.138;5.216;2023-11-21T02:48:18;101190.0;;;20.45;36.71
64019;BME280;66942;52.138;5.216;2023-11-21T02:51:31;101195.0;;;20.48;36.72
64019;BME280;66942;52.138;5.216;2023-11-21T02:53:08;101193.0;;;20.32;37.08
64019;BME280;66942;52.138;5.216;2023-11-21T02:54:44;101191.0;;;20.43;36.81
64019;BME280;66942;52.138;5.216;2023-11-21T02:57:56;101198.0;;;20.55;36.82
64019;BME280;66942;52.138;5.216;2023-11-21T02:59:32;101200.0;;;20.37;37.11
64019;BME280;66942;52.138;5.216;2023-11-21T03:01:08;101197.0;;;20.51;36.89
64019;BME280;66942;52.138;5.216;2023-11-21T03:04:20;101196.0;;;20.52;36.92
64019;BME280;66942;52.138;5.216;2023-11-21T03:05:56;101198.0;;;20.66;36.68
64019;BME280;66942;52.138;5.216;2023-11-21T03:07:33;101196.0;;;20.69;36.72
64019;BME280;66942;52.138;5.216;2023-11-21T03:09:09;101190.0;;;20.97;36.31
64019;BME280;66942;52.138;5.216;2023-11-21T03:12:21;101194.0;;;21.06;36.19
64019;BME280;66942;52.138;5.216;2023-11-21T03:13:57;101192.0;;;21.6;35.31
64019;BME280;66942;52.138;5.216;2023-11-21T03:15:33;101189.0;;;21.59;35.22
64019;BME280;66942;52.138;5.216;2023-11-21T03:18:45;101193.0;;;21.45;35.46
64019;BME280;66942;52.138;5.216;2023-11-21T03:20:21;101197.0;;;20.94;36.49
64019;BME280;66942;52.138;5.216;2023-11-21T03:21:57;101199.0;;;20.98;36.62
64019;BME280;66942;52.138;5.216;2023-11-21T03:25:10;101203.0;;;21.08;36.39
64019;BME280;66942;52.138;5.216;2023-11-21T03:26:46;101203.0;;;21.16;36.24
64019;BME280;66942;52.138;5.216;2023-11-21T03:28:22;101194.0;;;21.55;35.51
64019;BME280;66942;52.138;5.216;2023-11-21T03:31:34;101191.0;;;21.69;35.31
64019;BME280;66942;52.138;5.216;2023-11-21T03:33:10;101197.0;;;21.84;35.06
64019;BME280;66942;52.138;5.216;2023-11-21T03:34:53;101196.0;;;22.08;34.67
64019;BME280;66942;52.138;5.216;2023-11-21T03:36:31;101201.0;;;21.68;35.32
64019;BME280;66942;52.138;5.216;2023-11-21T03:39:45;101201.0;;;21.4;35.76
64019;BME280;66942;52.138;5.216;2023-11-21T03:41:21;101206.0;;;21.19;36.21
64019;BME280;66942;52.138;5.216;2023-11-21T03:42:58;101212.0;;;21.24;36.06
64019;BME280;66942;52.138;5.216;2023-11-21T03:46:10;101212.0;;;21.15;36.17
64019;BME280;66942;52.138;5.216;2023-11-21T03:47:46;101206.0;;;21.4;35.82
64019;BME280;66942;52.138;5.216;2023-11-21T03:49:22;101213.0;;;21.33;35.94
64019;BME280;66942;52.138;5.216;2023-11-21T03:52:34;101208.0;;;21.16;36.26
64019;BME280;66942;52.138;5.216;2023-11-21T03:54:10;101216.0;;;21.18;36.24
64019;BME280;66942;52.138;5.216;2023-11-21T03:55:46;101214.0;;;21.48;35.78
64019;BME280;66942;52.138;5.216;2023-11-21T03:57:22;101220.0;;;21.41;35.96
64019;BME280;66942;52.138;5.216;2023-11-21T04:00:35;101223.0;;;21.65;35.56
64019;BME280;66942;52.138;5.216;2023-11-21T04:02:11;101226.0;;;21.63;35.6
64019;BME280;66942;52.138;5.216;2023-11-21T04:03:47;101232.0;;;21.2;36.43
64019;BME280;66942;52.138;5.216;2023-11-21T04:06:59;101233.0;;;21.35;36.25
64019;BME280;66942;52.138;5.216;2023-11-21T04:08:35;101236.0;;;21.26;36.39
64019;BME280;66942;52.138;5.216;2023-11-21T04:10:11;101238.0;;;21.43;36.21
64019;BME280;66942;52.138;5.216;2023-11-21T04:13:23;101243.0;;;21.47;36.11
64019;BME280;66942;52.138;5.216;2023-11-21T04:14:59;101243.0;;;21.51;36.14
64019;BME280;66942;52.138;5.216;2023-11-21T04:16:35;101245.0;;;21.86;35.58
64019;BME280;66942;52.138;5.216;2023-11-21T04:18:12;101243.0;;;21.44;36.25
64019;BME280;66942;52.138;5.216;2023-11-21T04:21:24;101247.0;;;21.22;36.64
64019;BME280;66942;52.138;5.216;2023-11-21T04:23:00;101252.0;;;21.59;36.06
64019;BME280;66942;52.138;5.216;2023-11-21T04:24:36;101255.0;;;21.86;35.65
64019;BME280;66942;52.138;5.216;2023-11-21T04:27:48;101257.0;;;22.13;35.18
64019;BME280;66942;52.138;5.216;2023-11-21T04:29:24;101263.0;;;22.18;35.14
64019;BME280;66942;52.138;5.216;2023-11-21T04:31:00;101264.0;;;22.0;35.42
64019;BME280;66942;52.138;5.216;2023-11-21T04:34:12;101270.0;;;21.35;36.76
64019;BME280;66942;52.138;5.216;2023-11-21T04:35:49;101277.0;;;21.98;35.67
64019;BME280;66942;52.138;5.216;2023-11-21T04:37:25;101277.0;;;21.69;36.06
64019;BME280;66942;52.138;5.216;2023-11-21T04:40:37;101280.0;;;21.61;36.25
64019;BME280;66942;52.138;5.216;2023-11-21T04:42:13;101280.0;;;21.55;36.35
64019;BME280;66942;52.138;5.216;2023-11-21T04:43:49;101278.0;;;21.74;36.03
64019;BME280;66942;52.138;5.216;2023-11-21T04:45:25;101280.0;;;21.87;36.0
64019;BME280;66942;52.138;5.216;2023-11-21T04:48:38;101281.0;;;22.17;35.46
64019;BME280;66942;52.138;5.216;2023-11-21T04:50:14;101281.0;;;22.15;35.53
64019;BME280;66942;52.138;5.216;2023-11-21T04:51:50;101280.0;;;21.88;36.04
64019;BME280;66942;52.138;5.216;2023-11-21T04:55:03;101287.0;;;22.18;35.58
64019;BME280;66942;52.138;5.216;2023-11-21T04:56:40;101282.0;;;21.91;35.96
64019;BME280;66942;52.138;5.216;2023-11-21T04:58:16;101283.0;;;21.93;36.1
64019;BME280;66942;52.138;5.216;2023-11-21T05:01:29;101291.0;;;21.82;36.24
64019;BME280;66942;52.138;5.216;2023-11-21T05:03:06;101287.0;;;21.65;36.58
64019;BME280;66942;52.138;5.216;2023-11-21T05:04:42;101283.0;;;21.88;36.21
64019;BME280;66942;52.138;5.216;2023-11-21T05:06:18;101293.0;;;21.73;36.49
64019;BME280;66942;52.138;5.216;2023-11-21T05:09:31;101298.0;;;21.65;36.67
64019;BME280;66942;52.138;5.216;2023-11-21T05:11:06;101299.0;;;21.82;36.44
64019;BME280;66942;52.138;5.216;2023-11-21T05:12:43;101300.0;;;21.99;36.04
64019;BME280;66942;52.138;5.216;2023-11-21T05:15:55;101306.0;;;21.8;36.35
64019;BME280;66942;52.138;5.216;2023-11-21T05:17:32;101307.0;;;21.89;36.31
64019;BME280;66942;52.138;5.216;2023-11-21T05:19:08;101303.0;;;22.02;36.06
64019;BME280;66942;52.138;5.216;2023-11-21T05:22:20;101305.0;;;21.96;36.21
64019;BME280;66942;52.138;5.216;2023-11-21T05:23:56;101308.0;;;21.8;36.42
64019;BME280;66942;52.138;5.216;2023-11-21T05:25:33;101309.0;;;21.83;36.37
64019;BME280;66942;52.138;5.216;2023-11-21T05:28:45;101312.0;;;21.77;36.49
64019;BME280;66942;52.138;5.216;2023-11-21T05:30:22;101313.0;;;21.67;36.72
64019;BME280;66942;52.138;5.216;2023-11-21T05:31:58;101315.0;;;21.94;36.35
64019;BME280;66942;52.138;5.216;2023-11-21T05:33:34;101305.0;;;22.08;36.03
64019;BME280;66942;52.138;5.216;2023-11-21T05:36:46;101311.0;;;21.85;36.44
64019;BME280;66942;52.138;5.216;2023-11-21T05:38:22;101324.0;;;22.57;35.18
64019;BME280;66942;52.138;5.216;2023-11-21T05:39:58;101323.0;;;22.37;35.71
64019;BME280;66942;52.138;5.216;2023-11-21T05:43:10;101328.0;;;22.07;36.21
64019;BME280;66942;52.138;5.216;2023-11-21T05:44:46;101331.0;;;22.41;35.64
64019;BME280;66942;52.138;5.216;2023-11-21T05:46:22;101332.0;;;22.6;35.35
64019;BME280;66942;52.138;5.216;2023-11-21T05:49:35;101332.0;;;22.19;36.1
64019;BME280;66942;52.138;5.216;2023-11-21T05:51:11;101338.0;;;22.25;36.04
64019;BME280;66942;52.138;5.216;2023-11-21T05:52:47;101345.0;;;22.01;36.53
64019;BME280;66942;52.138;5.216;2023-11-21T05:56:00;101343.0;;;22.09;36.42
64019;BME280;66942;52.138;5.216;2023-11-21T05:57:37;101352.0;;;21.96;36.69
64019;BME280;66942;52.138;5.216;2023-11-21T05:59:14;101355.0;;;22.18;36.36
64019;BME280;66942;52.138;5.216;2023-11-21T06:00:50;101356.0;;;22.18;36.42
64019;BME280;66942;52.138;5.216;2023-11-21T06:04:03;101358.0;;;22.53;35.87
64019;BME280;66942;52.138;5.216;2023-11-21T06:05:38;101362.0;;;22.87;35.29
64019;BME280;66942;52.138;5.216;2023-11-21T06:07:15;101367.0;;;22.21;36.39
64019;BME280;66942;52.138;5.216;2023-11-21T06:10:27;101369.0;;;22.09;36.64
64019;BME280;66942;52.138;5.216;2023-11-21T06:12:03;101370.0;;;22.09;36.64
64019;BME280;66942;52.138;5.216;2023-11-21T06:13:39;101371.0;;;22.36;36.1
64019;BME280;66942;52.138;5.216;2023-11-21T06:16:51;101372.0;;;22.44;36.06
64019;BME280;66942;52.138;5.216;2023-11-21T06:18:27;101377.0;;;22.38;36.14
64019;BME280;66942;52.138;5.216;2023-11-21T06:20:04;101385.0;;;22.19;36.47
64019;BME280;66942;52.138;5.216;2023-11-21T06:21:45;101385.0;;;22.46;35.93
64019;BME280;66942;52.138;5.216;2023-11-21T06:24:58;101389.0;;;22.3;36.03
64019;BME280;66942;52.138;5.216;2023-11-21T06:26:34;101391.0;;;22.54;35.78
64019;BME280;66942;52.138;5.216;2023-11-21T06:28:10;101389.0;;;22.43;35.79
64019;BME280;66942;52.138;5.216;2023-11-21T06:31:22;101387.0;;;22.26;36.1
64019;BME280;66942;52.138;5.216;2023-11-21T06:32:58;101387.0;;;22.56;35.58
64019;BME280;66942;52.138;5.216;2023-11-21T06:34:34;101390.0;;;22.3;36.03
64019;BME280;66942;52.138;5.216;2023-11-21T06:37:46;101392.0;;;22.38;35.92
64019;BME280;66942;52.138;5.216;2023-11-21T06:39:22;101394.0;;;22.26;36.31
64019;BME280;66942;52.138;5.216;2023-11-21T06:40:58;101399.0;;;22.48;35.96
64019;BME280;66942;52.138;5.216;2023-11-21T06:42:34;101399.0;;;22.56;35.9
64019;BME280;66942;52.138;5.216;2023-11-21T06:45:47;101396.0;;;22.73;35.71
64019;BME280;66942;52.138;5.216;2023-11-21T06:47:23;101401.0;;;22.9;35.54
64019;BME280;66942;52.138;5.216;2023-11-21T06:48:59;101400.0;;;22.92;35.6
64019;BME280;66942;52.138;5.216;2023-11-21T06:52:11;101408.0;;;22.98;35.58
64019;BME280;66942;52.138;5.216;2023-11-21T06:53:47;101411.0;;;22.69;36.11
64019;BME280;66942;52.138;5.216;2023-11-21T06:55:23;101415.0;;;22.83;35.96
64019;BME280;66942;52.138;5.216;2023-11-21T06:58:35;101420.0;;;22.93;35.83
64019;BME280;66942;52.138;5.216;2023-11-21T07:00:13;101421.0;;;23.02;35.71
64019;BME280;66942;52.138;5.216;2023-11-21T07:01:51;101428.0;;;22.68;36.46
64019;BME280;66942;52.138;5.216;2023-11-21T07:03:27;101430.0;;;22.73;36.4
64019;BME280;66942;52.138;5.216;2023-11-21T07:06:40;101431.0;;;23.01;35.96
64019;BME280;66942;52.138;5.216;2023-11-21T07:08:16;101434.0;;;22.87;36.26
64019;BME280;66942;52.138;5.216;2023-11-21T07:09:52;101438.0;;;22.89;36.31
64019;BME280;66942;52.138;5.216;2023-11-21T07:13:04;101441.0;;;22.84;36.43
64019;BME280;66942;52.138;5.216;2023-11-21T07:14:40;101440.0;;;22.85;36.46
64019;BME280;66942;52.138;5.216;2023-11-21T07:16:16;101443.0;;;23.05;36.24
64019;BME280;66942;52.138;5.216;2023-11-21T07:19:28;101447.0;;;23.07;36.31
64019;BME280;66942;52.138;5.216;2023-11-21T07:21:05;101449.0;;;23.36;35.85
64019;BME280;66942;52.138;5.216;2023-11-21T07:22:41;101447.0;;;23.19;36.17
64019;BME280;66942;52.138;5.216;2023-11-21T07:25:53;101450.0;;;23.52;35.76
64019;BME280;66942;52.138;5.216;2023-11-21T07:27:29;101447.0;;;23.52;35.82
64019;BME280;66942;52.138;5.216;2023-11-21T07:29:06;101450.0;;;23.45;35.99
64019;BME280;66942;52.138;5.216;2023-11-21T07:30:42;101451.0;;;23.31;36.31
64019;BME280;66942;52.138;5.216;2023-11-21T07:33:55;101455.0;;;23.44;36.19
64019;BME280;66942;52.138;5.216;2023-11-21T07:35:31;101458.0;;;23.51;36.08
64019;BME280;66942;52.138;5.216;2023-11-21T07:37:08;101461.0;;;23.74;35.79
64019;BME280;66942;52.138;5.216;2023-11-21T07:40:20;101464.0;;;23.72;35.87
64019;BME280;66942;52.138;5.216;2023-11-21T07:41:56;101465.0;;;23.86;35.75
64019;BME280;66942;52.138;5.216;2023-11-21T07:43:32;101466.0;;;24.02;35.56
64019;BME280;66942;52.138;5.216;2023-11-21T07:46:44;101475.0;;;23.47;36.5
64019;BME280;66942;52.138;5.216;2023-11-21T07:48:20;101478.0;;;23.73;36.15
64019;BME280;66942;52.138;5.216;2023-11-21T07:49:56;101484.0;;;23.73;36.19
64019;BME280;66942;52.138;5.216;2023-11-21T07:53:08;101486.0;;;23.83;36.03
64019;BME280;66942;52.138;5.216;2023-11-21T07:54:44;101488.0;;;23.98;35.99
64019;BME280;66942;52.138;5.216;2023-11-21T07:56:20;101483.0;;;24.26;35.71
64019;BME280;66942;52.138;5.216;2023-11-21T07:57:57;101489.0;;;24.02;36.03
64019;BME280;66942;52.138;5.216;2023-11-21T08:01:09;101490.0;;;24.33;35.58
64019;BME280;66942;52.138;5.216;2023-11-21T08:02:45;101498.0;;;24.36;35.67
64019;BME280;66942;52.138;5.216;2023-11-21T08:04:21;101506.0;;;24.31;35.69
64019;BME280;66942;52.138;5.216;2023-11-21T08:07:34;101515.0;;;24.13;36.21
64019;BME280;66942;52.138;5.216;2023-11-21T08:09:10;101512.0;;;24.34;35.89
64019;BME280;66942;52.138;5.216;2023-11-21T08:10:46;101517.0;;;24.78;35.39
64019;BME280;66942;52.138;5.216;2023-11-21T08:13:59;101518.0;;;24.97;35.39
64019;BME280;66942;52.138;5.216;2023-11-21T08:15:34;101524.0;;;25.16;35.12
64019;BME280;66942;52.138;5.216;2023-11-21T08:17:11;101525.0;;;25.06;35.4
64019;BME280;66942;52.138;5.216;2023-11-21T08:18:47;101534.0;;;24.99;35.68
64019;BME280;66942;52.138;5.216;2023-11-21T08:21:59;101537.0;;;24.94;35.72
64019;BME280;66942;52.138;5.216;2023-11-21T08:23:35;101541.0;;;25.28;35.29
64019;BME280;66942;52.138;5.216;2023-11-21T08:25:11;101545.0;;;25.24;35.39
64019;BME280;66942;52.138;5.216;2023-11-21T08:28:23;101550.0;;;25.22;35.44
64019;BME280;66942;52.138;5.216;2023-11-21T08:30:00;101556.0;;;25.27;35.4
64019;BME280;66942;52.138;5.216;2023-11-21T08:31:36;101565.0;;;25.07;35.61
64019;BME280;66942;52.138;5.216;2023-11-21T08:34:48;101565.0;;;25.39;35.28
64019;BME280;66942;52.138;5.216;2023-11-21T08:36:25;101572.0;;;25.46;35.1
64019;BME280;66942;52.138;5.216;2023-11-21T08:38:02;101574.0;;;25.4;35.31
64019;BME280;66942;52.138;5.216;2023-11-21T08:41:14;101570.0;;;25.38;35.36
64019;BME280;66942;52.138;5.216;2023-11-21T08:42:50;101570.0;;;25.53;35.15
64019;BME280;66942;52.138;5.216;2023-11-21T08:44:26;101569.0;;;25.42;35.35
64019;BME280;66942;52.138;5.216;2023-11-21T08:46:03;101569.0;;;25.59;35.26
64019;BME280;66942;52.138;5.216;2023-11-21T08:49:15;101575.0;;;25.34;35.64
64019;BME280;66942;52.138;5.216;2023-11-21T08:50:51;101576.0;;;25.71;35.24
64019;BME280;66942;52.138;5.216;2023-11-21T08:52:27;101578.0;;;25.74;35.28
64019;BME280;66942;52.138;5.216;2023-11-21T08:55:39;101582.0;;;25.81;35.15
64019;BME280;66942;52.138;5.216;2023-11-21T08:57:15;101587.0;;;25.8;35.36
64019;BME280;66942;52.138;5.216;2023-11-21T08:58:51;101583.0;;;25.68;35.61
64019;BME280;66942;52.138;5.216;2023-11-21T09:02:04;101591.0;;;25.98;35.04
64019;BME280;66942;52.138;5.216;2023-11-21T09:03:39;101599.0;;;26.03;35.03
64019;BME280;66942;52.138;5.216;2023-11-21T09:05:15;101609.0;;;26.26;34.67
64019;BME280;66942;52.138;5.216;2023-11-21T09:08:28;101614.0;;;26.45;34.28
64019;BME280;66942;52.138;5.216;2023-11-21T09:10:05;101615.0;;;26.11;34.72
64019;BME280;66942;52.138;5.216;2023-11-21T09:11:41;101619.0;;;25.98;34.74
64019;BME280;66942;52.138;5.216;2023-11-21T09:13:17;101622.0;;;25.8;34.81
64019;BME280;66942;52.138;5.216;2023-11-21T09:16:29;101621.0;;;25.14;35.64
64019;BME280;66942;52.138;5.216;2023-11-21T09:18:05;101623.0;;;25.87;34.75
64019;BME280;66942;52.138;5.216;2023-11-21T09:19:41;101623.0;;;25.59;35.03
64019;BME280;66942;52.138;5.216;2023-11-21T09:22:53;101626.0;;;25.86;34.67
64019;BME280;66942;52.138;5.216;2023-11-21T09:24:29;101634.0;;;25.71;34.96
64019;BME280;66942;52.138;5.216;2023-11-21T09:26:06;101646.0;;;25.04;35.81
64019;BME280;66942;52.138;5.216;2023-11-21T09:29:18;101645.0;;;25.56;35.17
64019;BME280;66942;52.138;5.216;2023-11-21T09:30:54;101646.0;;;25.53;35.14
64019;BME280;66942;52.138;5.216;2023-11-21T09:32:30;101648.0;;;25.56;35.04
64019;BME280;66942;52.138;5.216;2023-11-21T09:34:06;101652.0;;;25.7;34.64
64019;BME280;66942;52.138;5.216;2023-11-21T09:37:18;101655.0;;;25.73;34.71
64019;BME280;66942;52.138;5.216;2023-11-21T09:38:54;101658.0;;;25.43;35.11
64019;BME280;66942;52.138;5.216;2023-11-21T09:40:31;101662.0;;;25.76;34.71
64019;BME280;66942;52.138;5.216;2023-11-21T09:43:47;101673.0;;;25.69;34.75
64019;BME280;66942;52.138;5.216;2023-11-21T09:45:28;101676.0;;;25.6;34.94
64019;BME280;66942;52.138;5.216;2023-11-21T09:47:09;101681.0;;;25.7;34.72
64019;BME280;66942;52.138;5.216;2023-11-21T09:48:50;101683.0;;;25.49;35.08
64019;BME280;66942;52.138;5.216;2023-11-21T09:52:05;101684.0;;;25.33;35.07
64019;BME280;66942;52.138;5.216;2023-11-21T09:53:45;101688.0;;;25.28;35.24
64019;BME280;66942;52.138;5.216;2023-11-21T09:55:27;101692.0;;;25.58;34.86
64019;BME280;66942;52.138;5.216;2023-11-21T09:58:40;101697.0;;;25.27;35.36
64019;BME280;66942;52.138;5.216;2023-11-21T10:00:18;101699.0;;;25.3;35.31
64019;BME280;66942;52.138;5.216;2023-11-21T10:01:56;101697.0;;;25.74;34.61
64019;BME280;66942;52.138;5.216;2023-11-21T10:03:35;101694.0;;;25.57;34.97
64019;BME280;66942;52.138;5.216;2023-11-21T10:06:47;101697.0;;;25.28;35.49
64019;BME280;66942;52.138;5.216;2023-11-21T10:08:24;101702.0;;;25.47;35.04
64019;BME280;66942;52.138;5.216;2023-11-21T10:10:00;101693.0;;;24.79;36.04
64019;BME280;66942;52.138;5.216;2023-11-21T10:13:17;101706.0;;;25.32;35.39
64019;BME280;66942;52.138;5.216;2023-11-21T10:14:54;101708.0;;;25.12;35.61
64019;BME280;66942;52.138;5.216;2023-11-21T10:16:34;101716.0;;;25.16;35.31
64019;BME280;66942;52.138;5.216;2023-11-21T10:18:10;101717.0;;;25.59;34.71
64019;BME280;66942;52.138;5.216;2023-11-21T10:21:24;101724.0;;;25.64;34.58
64019;BME280;66942;52.138;5.216;2023-11-21T10:23:00;101737.0;;;25.44;34.87
64019;BME280;66942;52.138;5.216;2023-11-21T10:24:37;101742.0;;;25.34;34.99
64019;BME280;66942;52.138;5.216;2023-11-21T10:27:49;101745.0;;;25.55;34.64
64019;BME280;66942;52.138;5.216;2023-11-21T10:29:28;101746.0;;;25.28;34.87
64019;BME280;66942;52.138;5.216;2023-11-21T10:31:06;101755.0;;;25.26;34.69
64019;BME280;66942;52.138;5.216;2023-11-21T10:32:42;101758.0;;;25.49;34.54
64019;BME280;66942;52.138;5.216;2023-11-21T10:35:57;101762.0;;;25.42;34.56
64019;BME280;66942;52.138;5.216;2023-11-21T10:37:33;101761.0;;;25.25;34.71
64019;BME280;66942;52.138;5.216;2023-11-21T10:39:09;101765.0;;;24.91;35.06
64019;BME280;66942;52.138;5.216;2023-11-21T10:42:27;101774.0;;;25.18;34.85
64019;BME280;66942;52.138;5.216;2023-11-21T10:44:03;101774.0;;;25.27;34.74
64019;BME280;66942;52.138;5.216;2023-11-21T10:45:39;101776.0;;;25.18;34.81
64019;BME280;66942;52.138;5.216;2023-11-21T10:48:53;101782.0;;;24.67;35.71
64019;BME280;66942;52.138;5.216;2023-11-21T10:50:28;101782.0;;;24.81;35.42
64019;BME280;66942;52.138;5.216;2023-11-21T10:52:04;101786.0;;;24.99;35.35
64019;BME280;66942;52.138;5.216;2023-11-21T10:53:41;101792.0;;;25.11;35.06
64019;BME280;66942;52.138;5.216;2023-11-21T10:56:56;101796.0;;;25.16;34.99
64019;BME280;66942;52.138;5.216;2023-11-21T10:58:35;101797.0;;;25.15;35.1
64019;BME280;66942;52.138;5.216;2023-11-21T11:00:13;101803.0;;;25.18;35.07
64019;BME280;66942;52.138;5.216;2023-11-21T11:03:28;101799.0;;;25.16;35.19
64019;BME280;66942;52.138;5.216;2023-11-21T11:05:05;101802.0;;;24.96;35.21
64019;BME280;66942;52.138;5.216;2023-11-21T11:06:42;101801.0;;;25.21;34.74